Time;durP1;ratioP1;P1;durP2;ratioP2;P2;SDS_P1;SDS_P2;PMS_P1;PMS_P2;Temp;Humidity;BMP_temperature;BMP_pressure;BME280_temperature;BME280_humidity;BME280_pressure;Samples;Min_cycle;Max_cycle;Signal;HPM_P1;HPM_P2
2023/05/10 00:02:16;;;;;;;4.40;3.00;;;;;;;5.06;64.20;96947.97;108941;1275;22470;-81
2023/05/10 00:04:47;;;;;;;4.20;2.80;;;;;;;4.98;64.69;96948.19;108935;1273;22473;-81
2023/05/10 00:07:18;;;;;;;4.50;2.90;;;;;;;4.98;65.04;96942.83;108968;1272;23240;-81
2023/05/10 00:09:48;;;;;;;5.30;3.30;;;;;;;4.88;64.95;96939.73;108973;1275;22640;-81
2023/05/10 00:12:19;;;;;;;5.30;3.00;;;;;;;4.81;65.14;96939.81;108975;1275;25381;-81
2023/05/10 00:14:50;;;;;;;3.30;3.00;;;;;;;4.69;65.33;96938.10;108968;1275;22568;-81
2023/05/10 00:17:21;;;;;;;3.50;2.70;;;;;;;4.57;65.70;96934.62;108965;1275;22551;-81
2023/05/10 00:19:52;;;;;;;4.30;3.20;;;;;;;4.58;65.84;96933.48;108961;1268;23225;-81
2023/05/10 00:22:22;;;;;;;4.30;3.30;;;;;;;4.56;66.04;96933.54;108980;1275;22986;-81
2023/05/10 00:24:53;;;;;;;3.60;2.60;;;;;;;4.57;66.38;96935.83;108956;1273;22654;-81
2023/05/10 00:27:24;;;;;;;5.00;3.40;;;;;;;4.30;66.01;96930.32;108960;1275;22518;-81
2023/05/10 00:29:55;;;;;;;3.30;2.90;;;;;;;4.23;66.56;96931.21;108987;1272;22460;-81
2023/05/10 00:32:26;;;;;;;5.70;3.00;;;;;;;4.21;66.65;96931.95;108974;1272;22504;-81
2023/05/10 00:34:57;;;;;;;5.30;3.40;;;;;;;4.12;67.33;96933.55;108988;1275;23923;-81
2023/05/10 00:37:27;;;;;;;4.80;3.40;;;;;;;4.16;67.45;96931.69;108942;1275;22530;-81
2023/05/10 00:39:58;;;;;;;4.50;3.20;;;;;;;4.12;67.47;96930.00;108952;1275;24321;-81
2023/05/10 00:42:29;;;;;;;4.90;3.50;;;;;;;4.11;67.77;96928.77;108982;1273;22526;-81
2023/05/10 00:45:00;;;;;;;5.60;3.00;;;;;;;4.19;67.93;96930.55;108976;1275;22666;-81
2023/05/10 00:47:32;;;;;;;3.00;2.60;;;;;;;4.20;67.85;96928.52;108980;1268;22521;-81
2023/05/10 00:50:03;;;;;;;4.00;3.10;;;;;;;4.18;68.07;96927.59;108957;1268;25323;-81
2023/05/10 00:52:34;;;;;;;4.10;3.10;;;;;;;4.22;68.33;96923.73;109135;1267;22569;-81
2023/05/10 00:55:07;;;;;;;4.80;3.40;;;;;;;4.13;68.51;96931.80;109137;1273;22511;-81
2023/05/10 00:57:37;;;;;;;6.00;3.40;;;;;;;3.83;67.99;96927.02;109115;1273;22511;-81
2023/05/10 01:00:11;;;;;;;4.20;2.90;;;;;;;3.72;68.62;96920.52;109067;1273;24055;-81
2023/05/10 01:02:42;;;;;;;5.30;3.50;;;;;;;3.75;69.06;96925.62;109092;1273;22559;-81
2023/05/10 01:05:14;;;;;;;8.30;4.00;;;;;;;3.58;69.07;96919.98;109104;1272;22508;-81
2023/05/10 01:07:44;;;;;;;5.70;3.60;;;;;;;3.62;70.00;96920.48;109138;1273;24200;-81
2023/05/10 01:10:15;;;;;;;4.60;3.40;;;;;;;3.73;69.85;96921.75;109087;1262;22638;-81
2023/05/10 01:12:48;;;;;;;5.20;3.30;;;;;;;3.66;69.64;96917.48;109093;1273;24066;-81
2023/05/10 01:15:21;;;;;;;4.70;3.80;;;;;;;3.61;70.09;96917.05;109114;1270;25242;-81
2023/05/10 01:17:52;;;;;;;5.40;3.30;;;;;;;3.64;70.41;96910.31;109196;1251;22476;-81
2023/05/10 01:20:24;;;;;;;3.50;3.00;;;;;;;3.65;70.17;96911.11;109108;1273;22528;-81
2023/05/10 01:23:22;;;;;;;5.10;3.40;;;;;;;3.70;70.88;96909.98;109100;1273;22509;-81
2023/05/10 01:26:14;;;;;;;5.20;3.20;;;;;;;3.79;71.03;96908.76;109124;1273;22476;-81
2023/05/10 01:29:17;;;;;;;5.00;3.10;;;;;;;3.78;70.76;96907.42;109081;1272;22574;-81
2023/05/10 01:32:16;;;;;;;5.20;3.70;;;;;;;3.73;70.57;96905.86;109104;1250;22793;-81
2023/05/10 01:34:55;;;;;;;5.00;3.40;;;;;;;3.61;70.96;96906.77;109130;1272;22558;-81
2023/05/10 01:37:33;;;;;;;4.60;3.30;;;;;;;3.65;71.40;96906.98;109071;1273;22629;-81
2023/05/10 01:40:18;;;;;;;4.60;3.50;;;;;;;3.64;71.59;96907.31;109107;1257;22516;-81
2023/05/10 01:42:54;;;;;;;4.20;3.10;;;;;;;3.59;71.69;96906.63;109121;1272;22633;-81
2023/05/10 01:45:31;;;;;;;5.00;3.90;;;;;;;3.57;71.90;96906.42;109074;1273;22540;-81
2023/05/10 01:48:13;;;;;;;5.40;3.60;;;;;;;3.55;71.94;96901.63;109111;1271;22513;-81
2023/05/10 01:50:47;;;;;;;6.50;3.50;;;;;;;3.60;71.96;96903.80;109077;1273;22565;-81
2023/05/10 01:53:22;;;;;;;4.90;3.40;;;;;;;3.67;72.14;96894.22;109098;1273;24202;-81
2023/05/10 01:55:56;;;;;;;6.00;4.10;;;;;;;3.72;72.04;96893.24;109128;1270;22470;-81
2023/05/10 01:58:32;;;;;;;5.10;3.90;;;;;;;3.74;72.13;96887.36;109120;1272;25411;-81
2023/05/10 02:01:07;;;;;;;5.60;3.50;;;;;;;3.74;72.00;96886.23;109051;1273;25875;-82
2023/05/10 02:03:39;;;;;;;6.40;3.40;;;;;;;3.72;71.79;96883.29;109111;1273;25233;-81
2023/05/10 02:06:13;;;;;;;7.20;3.50;;;;;;;3.64;71.47;96884.21;109108;1273;22545;-81
2023/05/10 02:08:50;;;;;;;5.60;3.40;;;;;;;3.50;71.74;96878.80;109089;1273;22515;-81
2023/05/10 02:11:22;;;;;;;5.70;3.80;;;;;;;3.49;71.95;96879.54;109091;1273;22470;-81
2023/05/10 02:13:56;;;;;;;4.10;3.40;;;;;;;3.42;72.13;96875.25;109084;1273;22818;-81
2023/05/10 02:16:30;;;;;;;4.90;3.70;;;;;;;3.37;72.53;96874.40;109130;1273;22519;-81
2023/05/10 02:19:02;;;;;;;6.10;3.90;;;;;;;3.43;72.70;96874.12;109099;1273;26021;-81
2023/05/10 02:21:34;;;;;;;6.20;4.00;;;;;;;3.49;72.81;96871.84;109076;1273;22557;-82
2023/05/10 02:24:08;;;;;;;6.30;4.40;;;;;;;3.55;72.79;96865.86;109075;1273;22473;-81
2023/05/10 02:26:41;;;;;;;5.60;4.10;;;;;;;3.59;72.81;96865.38;109063;1273;22563;-81
2023/05/10 02:29:15;;;;;;;7.10;4.20;;;;;;;3.62;72.75;96866.73;109108;1273;22451;-81
2023/05/10 02:31:46;;;;;;;6.20;4.50;;;;;;;3.50;72.47;96868.78;109104;1273;23129;-81
2023/05/10 02:34:17;;;;;;;6.30;3.80;;;;;;;3.44;72.91;96867.12;109082;1273;22621;-81
2023/05/10 02:36:48;;;;;;;5.10;4.00;;;;;;;3.49;73.07;96865.29;109098;1273;22522;-81
2023/05/10 02:39:21;;;;;;;5.70;3.90;;;;;;;3.49;72.89;96867.87;109091;1260;22601;-81
2023/05/10 02:41:55;;;;;;;4.80;3.70;;;;;;;3.48;72.64;96867.48;109087;1273;22556;-81
2023/05/10 02:44:28;;;;;;;4.80;3.50;;;;;;;3.46;72.65;96869.42;109106;1273;22525;-81
2023/05/10 02:46:59;;;;;;;6.20;3.60;;;;;;;3.47;72.85;96870.86;109102;1273;22537;-81
2023/05/10 02:49:30;;;;;;;5.50;3.80;;;;;;;3.49;73.13;96868.60;109106;1273;22695;-81
2023/05/10 02:52:06;;;;;;;5.90;4.20;;;;;;;3.50;73.10;96868.41;109093;1270;22514;-81
2023/05/10 02:54:45;;;;;;;4.90;3.50;;;;;;;3.53;73.01;96866.62;109057;1267;22518;-81
2023/05/10 02:57:23;;;;;;;5.00;3.80;;;;;;;3.56;73.08;96873.86;109148;1251;22516;-81
2023/05/10 02:59:54;;;;;;;5.50;3.50;;;;;;;3.44;72.68;96872.67;109114;1273;22455;-81
2023/05/10 03:02:26;;;;;;;5.60;3.90;;;;;;;3.24;72.75;96869.45;109064;1270;22759;-81
2023/05/10 03:04:56;;;;;;;5.70;3.80;;;;;;;3.22;73.27;96870.36;109108;1267;22539;-81
2023/05/10 03:07:27;;;;;;;5.60;3.10;;;;;;;3.32;73.67;96865.35;109109;1267;23673;-81
2023/05/10 03:09:59;;;;;;;5.40;3.90;;;;;;;3.40;73.60;96868.60;109146;1263;22708;-81
2023/05/10 03:12:50;;;;;;;7.20;3.80;;;;;;;3.40;73.42;96869.29;109062;1273;22530;-81
2023/05/10 03:15:32;;;;;;;4.80;4.00;;;;;;;3.42;73.74;96868.02;109090;1273;22486;-81
2023/05/10 03:18:11;;;;;;;8.10;3.10;;;;;;;3.48;73.81;96869.94;109110;1273;24268;-81
2023/05/10 03:20:46;;;;;;;3.90;3.40;;;;;;;3.32;73.02;96866.14;109126;1273;22616;-81
2023/05/10 03:23:27;;;;;;;4.80;3.50;;;;;;;3.22;73.83;96865.96;109130;1251;22526;-81
2023/05/10 03:26:00;;;;;;;5.20;3.60;;;;;;;3.32;74.22;96864.05;109093;1273;22651;-81
2023/05/10 03:28:32;;;;;;;4.30;3.30;;;;;;;3.42;74.44;96864.41;109107;1273;23063;-81
2023/05/10 03:31:05;;;;;;;3.70;3.10;;;;;;;3.42;74.01;96867.71;109097;1273;22916;-81
2023/05/10 03:33:36;;;;;;;5.80;3.80;;;;;;;3.34;74.32;96863.00;109076;1273;23148;-81
2023/05/10 03:36:08;;;;;;;4.40;3.50;;;;;;;3.38;74.76;96861.77;109098;1266;23475;-81
2023/05/10 03:38:39;;;;;;;5.70;3.30;;;;;;;3.44;74.68;96858.15;109086;1273;22480;-81
2023/05/10 03:41:09;;;;;;;5.00;3.70;;;;;;;3.49;74.83;96856.79;109096;1273;24001;-81
2023/05/10 03:43:41;;;;;;;4.40;3.40;;;;;;;3.56;75.09;96859.19;109079;1273;24504;-81
2023/05/10 03:46:11;;;;;;;4.20;3.60;;;;;;;3.66;75.18;96856.83;109050;1267;22640;-81
2023/05/10 03:48:42;;;;;;;5.80;3.40;;;;;;;3.75;75.15;96856.71;109103;1263;22822;-81
2023/05/10 03:51:13;;;;;;;6.10;4.50;;;;;;;3.84;75.25;96852.86;109119;1273;22521;-81
2023/05/10 03:53:44;;;;;;;4.30;3.30;;;;;;;3.94;75.40;96851.30;109124;1268;23165;-81
2023/05/10 03:56:15;;;;;;;5.20;3.70;;;;;;;4.07;75.58;96853.02;109058;1273;22592;-81
2023/05/10 03:58:46;;;;;;;4.90;3.80;;;;;;;4.19;75.57;96853.46;109099;1273;23761;-81
2023/05/10 04:01:17;;;;;;;7.30;3.50;;;;;;;4.28;75.49;96853.38;109080;1273;22942;-81
2023/05/10 04:03:48;;;;;;;6.20;3.70;;;;;;;4.35;75.69;96856.83;109009;1273;139578;-81
2023/05/10 04:06:19;;;;;;;6.30;3.90;;;;;;;4.45;75.49;96854.88;109086;1273;22509;-81
2023/05/10 04:08:49;;;;;;;4.60;3.40;;;;;;;4.58;75.35;96854.65;109145;1259;22556;-81
2023/05/10 04:11:21;;;;;;;7.90;4.20;;;;;;;4.74;75.28;96853.52;109068;1273;25256;-81
2023/05/10 04:13:52;;;;;;;5.10;3.90;;;;;;;4.92;75.31;96856.73;109069;1271;22462;-81
2023/05/10 04:16:23;;;;;;;7.80;4.40;;;;;;;5.10;75.69;96859.43;109082;1269;22531;-81
2023/05/10 04:18:54;;;;;;;8.60;4.10;;;;;;;5.26;75.67;96854.02;109079;1273;22637;-81
2023/05/10 04:21:25;;;;;;;6.90;3.50;;;;;;;5.42;75.73;96859.42;109083;1273;22698;-81
2023/05/10 04:23:56;;;;;;;5.10;3.60;;;;;;;5.61;76.01;96855.41;109088;1273;22543;-81
2023/05/10 04:26:27;;;;;;;6.20;3.70;;;;;;;5.80;76.34;96855.02;109110;1267;24209;-81
2023/05/10 04:28:58;;;;;;;4.00;3.20;;;;;;;5.97;75.71;96853.22;109053;1268;22675;-81
2023/05/10 04:31:29;;;;;;;3.90;3.10;;;;;;;6.17;75.30;96853.91;109128;1273;22859;-81
2023/05/10 04:34:00;;;;;;;8.20;4.10;;;;;;;6.39;75.01;96855.93;109097;1270;22578;-81
2023/05/10 04:36:32;;;;;;;5.30;4.10;;;;;;;6.68;75.74;96854.73;109131;1269;22527;-81
2023/05/10 04:39:03;;;;;;;5.40;4.00;;;;;;;6.99;76.02;96850.84;109082;1273;24337;-81
2023/05/10 04:41:34;;;;;;;6.40;4.50;;;;;;;7.31;75.94;96848.18;109081;1273;24221;-81
2023/05/10 04:44:06;;;;;;;5.50;4.00;;;;;;;7.89;76.38;96850.96;109109;1267;22579;-82
2023/05/10 04:46:36;;;;;;;8.40;4.30;;;;;;;9.79;77.44;96850.05;109119;1273;22707;-82
2023/05/10 04:49:07;;;;;;;6.50;4.70;;;;;;;12.26;76.26;96845.30;109124;1273;22518;-82
2023/05/10 04:51:38;;;;;;;6.80;4.60;;;;;;;14.90;73.12;96842.81;109143;1270;22473;-82
2023/05/10 04:54:09;;;;;;;6.20;3.80;;;;;;;17.00;68.70;96840.36;109132;1271;22525;-82
2023/05/10 04:56:40;;;;;;;4.40;3.90;;;;;;;18.86;65.05;96841.00;109108;1273;22518;-82
2023/05/10 04:59:11;;;;;;;4.90;3.40;;;;;;;20.52;61.69;96837.90;109083;1267;22511;-82
2023/05/10 05:01:42;;;;;;;5.70;3.60;;;;;;;21.53;56.43;96838.02;109057;1267;22588;-83
2023/05/10 05:04:14;;;;;;;4.40;3.20;;;;;;;22.28;54.27;96838.61;109081;1267;22744;-82
2023/05/10 05:06:45;;;;;;;6.10;3.40;;;;;;;23.21;51.36;96840.10;109077;1269;22503;-83
2023/05/10 05:09:16;;;;;;;3.20;2.90;;;;;;;24.01;49.54;96831.56;109104;1273;25361;-83
2023/05/10 05:11:47;;;;;;;4.70;3.10;;;;;;;25.07;48.12;96833.13;109063;1273;22465;-83
2023/05/10 05:14:18;;;;;;;3.80;3.00;;;;;;;25.91;46.29;96831.92;109101;1270;22507;-83
2023/05/10 05:16:49;;;;;;;4.00;2.80;;;;;;;26.66;43.57;96828.67;109088;1266;22534;-83
2023/05/10 05:19:20;;;;;;;4.80;2.70;;;;;;;26.88;41.71;96828.81;109079;1273;22556;-83
2023/05/10 05:21:51;;;;;;;3.30;2.50;;;;;;;27.55;40.94;96825.14;109101;1273;23144;-81
2023/05/10 05:24:22;;;;;;;2.90;2.60;;;;;;;28.28;39.70;96822.77;109097;1267;25259;-81
2023/05/10 05:26:53;;;;;;;5.40;2.80;;;;;;;28.48;36.78;96823.10;109063;1267;22515;-81
2023/05/10 05:29:24;;;;;;;4.20;2.40;;;;;;;28.44;36.50;96823.10;109128;1273;25336;-81
2023/05/10 05:31:55;;;;;;;5.40;2.70;;;;;;;28.79;35.77;96820.75;109123;1266;22531;-81
2023/05/10 05:34:26;;;;;;;2.70;2.50;;;;;;;29.35;35.80;96821.25;109117;1269;25403;-81
2023/05/10 05:36:57;;;;;;;3.70;3.00;;;;;;;29.85;34.55;96821.21;109084;1273;22530;-82
2023/05/10 05:39:28;;;;;;;3.40;2.60;;;;;;;30.67;33.83;96821.36;109107;1273;22520;-81
2023/05/10 05:41:59;;;;;;;3.30;2.90;;;;;;;30.71;30.94;96822.82;109102;1270;25933;-81
2023/05/10 05:44:30;;;;;;;2.80;2.40;;;;;;;30.22;29.70;96819.52;109099;1273;22517;-81
2023/05/10 05:47:01;;;;;;;3.70;2.70;;;;;;;29.96;28.84;96820.92;109120;1273;22472;-81
2023/05/10 05:49:31;;;;;;;4.20;2.70;;;;;;;29.71;29.22;96820.27;109124;1273;22564;-81
2023/05/10 05:52:03;;;;;;;3.10;2.20;;;;;;;30.50;29.86;96823.20;109076;1273;22543;-81
2023/05/10 05:54:34;;;;;;;4.20;2.30;;;;;;;31.62;29.89;96816.60;109134;1273;22578;-81
2023/05/10 05:57:05;;;;;;;3.10;2.30;;;;;;;32.48;29.26;96819.94;109118;1273;22546;-81
2023/05/10 05:59:36;;;;;;;3.00;2.10;;;;;;;33.43;28.84;96819.05;108956;1267;131041;-82
2023/05/10 06:02:07;;;;;;;3.60;2.50;;;;;;;34.27;28.30;96816.08;109074;1273;22528;-81
2023/05/10 06:04:38;;;;;;;2.70;2.20;;;;;;;35.16;27.59;96817.64;108913;1251;202102;-81
2023/05/10 06:07:09;;;;;;;3.20;2.40;;;;;;;35.62;26.60;96817.94;109088;1251;22520;-81
2023/05/10 06:09:40;;;;;;;3.20;2.50;;;;;;;36.08;26.38;96818.64;109057;1266;22514;-81
2023/05/10 06:12:11;;;;;;;3.90;2.50;;;;;;;36.40;25.64;96816.95;109123;1273;22525;-81
2023/05/10 06:14:42;;;;;;;3.50;2.70;;;;;;;36.97;25.22;96811.72;109089;1273;23821;-81
2023/05/10 06:17:13;;;;;;;3.70;2.60;;;;;;;37.40;24.82;96812.90;109120;1273;22521;-81
2023/05/10 06:19:44;;;;;;;3.70;2.60;;;;;;;37.88;24.30;96812.34;109090;1273;24234;-81
2023/05/10 06:22:15;;;;;;;4.00;3.00;;;;;;;37.83;23.46;96812.83;109112;1273;22494;-82
2023/05/10 06:24:46;;;;;;;3.50;2.50;;;;;;;37.69;23.19;96814.23;109071;1270;22478;-81
2023/05/10 06:27:17;;;;;;;4.10;2.70;;;;;;;38.03;23.26;96814.13;109060;1265;22530;-81
2023/05/10 06:29:50;;;;;;;3.00;2.50;;;;;;;38.58;22.71;96813.20;109141;1273;22531;-82
2023/05/10 06:32:21;;;;;;;3.30;2.50;;;;;;;38.67;22.15;96810.08;109098;1273;24214;-81
2023/05/10 06:34:52;;;;;;;3.20;2.50;;;;;;;38.84;22.05;96810.33;109145;1266;25256;-81
2023/05/10 06:37:23;;;;;;;3.00;2.50;;;;;;;39.45;22.05;96813.00;109089;1266;25307;-82
2023/05/10 06:39:54;;;;;;;3.20;2.30;;;;;;;39.73;21.62;96813.32;109124;1266;24270;-82
2023/05/10 06:42:25;;;;;;;3.00;2.20;;;;;;;40.31;21.64;96811.30;109091;1267;22759;-82
2023/05/10 06:44:56;;;;;;;2.10;1.90;;;;;;;39.84;17.63;96807.03;109166;1273;23719;-82
2023/05/10 06:47:27;;;;;;;2.60;1.80;;;;;;;37.37;17.87;96805.46;109085;1270;22650;-82
2023/05/10 06:49:57;;;;;;;3.90;2.00;;;;;;;37.63;19.95;96808.08;109134;1273;22557;-82
2023/05/10 06:52:28;;;;;;;2.50;2.00;;;;;;;38.20;17.14;96806.55;109091;1273;22547;-82
2023/05/10 06:55:00;;;;;;;2.10;1.90;;;;;;;36.02;16.81;96801.82;109096;1273;22555;-82
2023/05/10 06:57:31;;;;;;;3.50;2.10;;;;;;;35.27;17.69;96808.29;109076;1273;24605;-82
2023/05/10 07:00:03;;;;;;;2.00;1.80;;;;;;;35.19;18.17;96808.65;109081;1273;22507;-82
2023/05/10 07:02:34;;;;;;;2.10;1.90;;;;;;;35.32;18.40;96806.27;109108;1270;23293;-82
2023/05/10 07:05:06;;;;;;;2.70;1.80;;;;;;;35.92;18.80;96804.79;109113;1254;24321;-82
2023/05/10 07:07:38;;;;;;;3.50;2.00;;;;;;;36.40;17.99;96807.86;109144;1265;23159;-82
2023/05/10 07:10:11;;;;;;;5.10;1.90;;;;;;;36.29;16.24;96805.92;109065;1270;22518;-82
2023/05/10 07:12:43;;;;;;;2.50;1.50;;;;;;;35.45;16.93;96805.12;109144;1270;22513;-82
2023/05/10 07:15:13;;;;;;;1.50;1.30;;;;;;;34.32;16.14;96800.30;109101;1273;22478;-82
2023/05/10 07:17:45;;;;;;;1.50;1.40;;;;;;;33.55;16.44;96801.07;109084;1267;22639;-82
2023/05/10 07:20:16;;;;;;;1.80;1.70;;;;;;;32.60;16.95;96804.55;109062;1273;22536;-82
2023/05/10 07:22:47;;;;;;;2.00;1.60;;;;;;;33.81;18.95;96803.83;109109;1273;22524;-82
2023/05/10 07:25:18;;;;;;;3.10;1.90;;;;;;;35.73;16.51;96803.98;109067;1273;22563;-82
2023/05/10 07:27:49;;;;;;;1.60;1.50;;;;;;;34.36;15.16;96804.25;109108;1273;22527;-82
2023/05/10 07:30:20;;;;;;;2.30;1.60;;;;;;;32.86;15.73;96802.14;109084;1266;22527;-82
2023/05/10 07:32:51;;;;;;;1.90;1.30;;;;;;;32.73;16.97;96799.77;109124;1267;25428;-82
2023/05/10 07:35:22;;;;;;;2.00;1.50;;;;;;;34.42;17.64;96801.61;109079;1273;22514;-82
2023/05/10 07:37:53;;;;;;;1.60;1.50;;;;;;;35.07;16.21;96806.15;109114;1273;23550;-83
2023/05/10 07:40:24;;;;;;;2.10;1.40;;;;;;;34.04;14.14;96801.75;109067;1273;22603;-84
2023/05/10 07:42:55;;;;;;;1.80;1.40;;;;;;;32.87;15.58;96805.65;109104;1273;22640;-84
2023/05/10 07:45:26;;;;;;;2.10;1.40;;;;;;;32.36;16.09;96800.15;109126;1266;22653;-84
2023/05/10 07:47:57;;;;;;;1.50;1.40;;;;;;;32.33;15.84;96804.56;109106;1251;22515;-84
2023/05/10 07:50:28;;;;;;;2.30;1.50;;;;;;;31.34;17.01;96804.02;109084;1266;22510;-84
2023/05/10 07:52:59;;;;;;;1.80;1.30;;;;;;;30.81;17.53;96798.33;109121;1273;23814;-84
2023/05/10 07:55:30;;;;;;;1.90;1.70;;;;;;;30.25;18.70;96794.63;109090;1273;24338;-84
2023/05/10 07:58:02;;;;;;;1.70;1.60;;;;;;;29.27;19.04;96798.95;109080;1266;25297;-83
2023/05/10 08:00:33;;;;;;;1.90;1.40;;;;;;;28.72;20.31;96797.67;109073;1273;22584;-83
2023/05/10 08:03:04;;;;;;;2.40;1.70;;;;;;;29.95;19.76;96792.63;109091;1273;23053;-83
2023/05/10 08:05:35;;;;;;;3.90;1.90;;;;;;;31.76;19.18;96794.23;109108;1273;22870;-84
2023/05/10 08:08:06;;;;;;;2.00;1.50;;;;;;;31.60;17.86;96798.84;109102;1266;25408;-84
2023/05/10 08:10:37;;;;;;;1.90;1.20;;;;;;;29.75;18.44;96801.06;109112;1273;23020;-83
2023/05/10 08:13:08;;;;;;;2.00;1.50;;;;;;;29.20;19.47;96802.35;109109;1273;25310;-83
2023/05/10 08:15:38;;;;;;;1.50;1.40;;;;;;;29.65;19.39;96796.96;109109;1273;22521;-83
2023/05/10 08:18:09;;;;;;;2.20;1.60;;;;;;;28.54;19.72;96800.06;109071;1270;22514;-83
2023/05/10 08:20:40;;;;;;;2.10;1.60;;;;;;;27.14;20.76;96802.20;109068;1273;22528;-83
2023/05/10 08:23:13;;;;;;;2.20;1.40;;;;;;;26.62;22.05;96799.30;109130;1273;22517;-83
2023/05/10 08:25:44;;;;;;;4.00;1.80;;;;;;;29.01;22.37;96790.28;109106;1273;22579;-82
2023/05/10 08:28:15;;;;;;;1.90;1.40;;;;;;;31.19;19.38;96794.87;109100;1262;22461;-83
2023/05/10 08:30:46;;;;;;;2.10;1.90;;;;;;;28.41;19.32;96792.31;109079;1262;24240;-83
2023/05/10 08:33:18;;;;;;;4.30;2.10;;;;;;;25.21;21.58;96793.75;109093;1273;24205;-83
2023/05/10 08:35:49;;;;;;;3.50;2.20;;;;;;;22.62;24.18;96800.67;109118;1273;22523;-82
2023/05/10 08:38:20;;;;;;;2.30;1.80;;;;;;;23.60;24.92;96794.80;109114;1272;22566;-82
2023/05/10 08:40:56;;;;;;;2.30;1.90;;;;;;;23.62;24.53;96795.04;109040;1267;25326;-83
2023/05/10 08:43:29;;;;;;;2.00;1.80;;;;;;;22.39;25.42;96799.75;109069;1273;22510;-82
2023/05/10 08:46:03;;;;;;;3.40;2.10;;;;;;;21.23;26.63;96796.92;109093;1265;22511;-83
2023/05/10 08:48:36;;;;;;;4.30;2.20;;;;;;;20.91;27.33;96798.87;109105;1270;24171;-83
2023/05/10 08:51:09;;;;;;;2.70;2.20;;;;;;;20.59;28.21;96803.26;109064;1273;22571;-83
2023/05/10 08:53:40;;;;;;;2.70;2.20;;;;;;;20.29;28.89;96803.16;109085;1273;22597;-83
2023/05/10 08:56:11;;;;;;;4.10;2.30;;;;;;;20.65;29.27;96801.05;109104;1273;24201;-83
2023/05/10 08:58:42;;;;;;;4.00;2.20;;;;;;;22.50;27.78;96804.08;109100;1266;22736;-82
2023/05/10 09:01:16;;;;;;;3.40;2.60;;;;;;;23.69;26.57;96800.88;109082;1265;24143;-83
2023/05/10 09:03:48;;;;;;;4.40;2.30;;;;;;;22.58;26.47;96801.73;109119;1273;22977;-83
2023/05/10 09:06:19;;;;;;;3.90;2.40;;;;;;;20.75;28.30;96803.45;109074;1273;22802;-82
2023/05/10 09:08:51;;;;;;;5.00;2.80;;;;;;;19.52;29.89;96802.31;109170;1266;22583;-83
2023/05/10 09:11:22;;;;;;;2.70;2.20;;;;;;;18.72;31.01;96807.05;109054;1267;22469;-82
2023/05/10 09:13:55;;;;;;;4.10;2.60;;;;;;;18.17;32.62;96813.02;109097;1273;22523;-83
2023/05/10 09:16:27;;;;;;;5.30;2.20;;;;;;;17.56;33.07;96810.72;109062;1266;22554;-82
2023/05/10 09:18:58;;;;;;;4.70;2.60;;;;;;;17.13;34.61;96817.36;109071;1273;22566;-83
2023/05/10 09:21:30;;;;;;;2.30;2.10;;;;;;;16.84;34.80;96816.80;109106;1270;25422;-82
2023/05/10 09:24:05;;;;;;;3.90;2.50;;;;;;;16.83;34.57;96813.77;109105;1273;22702;-82
2023/05/10 09:26:46;;;;;;;4.40;2.50;;;;;;;16.94;34.27;96812.52;109084;1273;22539;-82
2023/05/10 09:29:17;;;;;;;3.70;2.20;;;;;;;16.99;34.27;96809.46;109086;1273;22654;-82
2023/05/10 09:31:51;;;;;;;3.10;2.30;;;;;;;16.99;35.04;96808.14;109086;1266;23531;-82
2023/05/10 09:34:29;;;;;;;3.40;2.30;;;;;;;16.69;35.51;96810.61;109151;1273;22483;-82
2023/05/10 09:37:03;;;;;;;6.60;2.30;;;;;;;16.42;35.42;96805.88;109083;1273;22628;-82
2023/05/10 09:39:34;;;;;;;3.10;2.20;;;;;;;16.63;35.98;96807.70;109127;1253;22645;-83
2023/05/10 09:42:07;;;;;;;3.00;2.70;;;;;;;16.55;35.73;96807.70;109086;1273;22517;-82
2023/05/10 09:44:40;;;;;;;3.10;2.40;;;;;;;16.54;35.73;96808.90;109081;1268;22507;-82
2023/05/10 09:47:11;;;;;;;2.80;2.30;;;;;;;16.49;35.69;96802.19;109085;1270;22475;-82
2023/05/10 09:49:44;;;;;;;3.50;2.40;;;;;;;16.57;35.85;96794.73;109116;1265;23287;-82
2023/05/10 09:52:15;;;;;;;3.90;2.30;;;;;;;16.72;35.94;96798.57;108999;1275;23827;-82
2023/05/10 09:54:54;;;;;;;4.20;2.40;;;;;;;16.67;35.64;96804.38;109019;1275;22472;-82
2023/05/10 09:57:26;;;;;;;2.20;1.80;;;;;;;16.46;36.39;96798.27;108983;1275;22523;-82
2023/05/10 09:59:58;;;;;;;2.30;2.00;;;;;;;16.18;36.34;96794.06;108989;1275;22525;-82
2023/05/10 10:02:32;;;;;;;3.60;2.30;;;;;;;15.88;37.48;96794.48;108949;1275;22518;-82
2023/05/10 10:05:07;;;;;;;3.50;2.40;;;;;;;15.74;38.08;96785.11;108999;1275;22508;-82
2023/05/10 10:07:40;;;;;;;2.70;1.90;;;;;;;15.84;37.66;96789.19;109016;1275;22527;-82
2023/05/10 10:10:12;;;;;;;3.90;2.10;;;;;;;16.06;38.02;96788.13;108967;1269;23045;-83
2023/05/10 10:12:45;;;;;;;2.90;2.30;;;;;;;16.06;37.21;96777.02;109026;1275;22526;-82
2023/05/10 10:15:16;;;;;;;3.40;2.30;;;;;;;15.95;37.15;96786.73;109009;1275;25419;-82
2023/05/10 10:17:49;;;;;;;2.60;2.00;;;;;;;15.82;36.86;96788.33;109000;1275;24199;-82
2023/05/10 10:20:22;;;;;;;3.80;2.00;;;;;;;15.75;37.65;96782.56;108954;1275;22529;-82
2023/05/10 10:22:53;;;;;;;3.80;2.50;;;;;;;15.78;37.70;96781.18;109003;1275;22465;-82
2023/05/10 10:25:25;;;;;;;4.50;2.60;;;;;;;15.71;37.42;96782.42;108961;1275;25483;-82
2023/05/10 10:28:22;;;;;;;2.80;1.60;;;;;;;15.85;37.29;96777.70;108981;1275;25268;-82
2023/05/10 10:30:56;;;;;;;2.20;2.00;;;;;;;16.00;36.74;96785.35;109006;1275;22572;-82
2023/05/10 10:33:40;;;;;;;4.30;2.50;;;;;;;16.29;37.00;96782.25;109009;1275;22472;-82
2023/05/10 10:36:11;;;;;;;3.50;1.80;;;;;;;16.55;36.38;96783.48;108988;1275;25294;-82
2023/05/10 10:38:59;;;;;;;2.60;1.90;;;;;;;16.41;34.96;96777.44;108973;1275;22805;-82
2023/05/10 10:41:38;;;;;;;2.60;1.90;;;;;;;16.35;36.15;96772.20;108944;1269;22634;-82
2023/05/10 10:44:38;;;;;;;3.10;2.00;;;;;;;16.45;35.58;96772.06;109007;1268;22518;-82
2023/05/10 10:47:24;;;;;;;4.90;2.10;;;;;;;16.24;35.47;96768.41;109047;1268;22496;-82
2023/05/10 10:50:06;;;;;;;2.10;1.70;;;;;;;16.13;36.84;96767.89;109036;1273;24469;-82
2023/05/10 10:52:39;;;;;;;2.60;1.90;;;;;;;16.02;36.26;96766.94;109151;1273;22629;-82
2023/05/10 10:55:12;;;;;;;2.80;2.10;;;;;;;16.05;36.12;96764.00;109117;1273;23548;-82
2023/05/10 10:57:49;;;;;;;4.60;2.20;;;;;;;16.24;36.16;96760.77;109098;1273;22472;-82
2023/05/10 11:00:31;;;;;;;3.40;2.20;;;;;;;16.42;36.29;96756.48;109058;1273;25403;-82
2023/05/10 11:03:06;;;;;;;2.30;2.10;;;;;;;16.61;35.44;96755.70;109082;1273;25444;-82
2023/05/10 11:05:40;;;;;;;2.80;1.90;;;;;;;16.43;34.95;96744.99;109139;1273;22514;-82
2023/05/10 11:08:19;;;;;;;2.70;1.60;;;;;;;16.25;34.80;96751.02;109141;1273;24299;-82
2023/05/10 11:10:55;;;;;;;2.80;1.90;;;;;;;16.09;35.62;96746.73;109086;1273;22486;-82
2023/05/10 11:13:33;;;;;;;3.90;2.20;;;;;;;16.15;36.01;96739.56;109123;1273;22561;-83
2023/05/10 11:16:16;;;;;;;3.00;2.20;;;;;;;16.23;36.04;96733.97;109106;1273;22458;-83
2023/05/10 11:19:05;;;;;;;2.00;1.80;;;;;;;16.19;35.99;96740.02;109100;1273;22525;-83
2023/05/10 11:21:48;;;;;;;2.40;2.10;;;;;;;16.26;36.14;96738.54;109078;1273;22486;-82
2023/05/10 11:24:20;;;;;;;3.80;1.90;;;;;;;16.24;36.56;96734.54;109188;1273;24176;-82
2023/05/10 11:26:54;;;;;;;2.00;1.80;;;;;;;16.53;37.17;96733.93;109100;1273;22551;-82
2023/05/10 11:29:26;;;;;;;3.40;2.00;;;;;;;16.58;36.52;96737.80;109106;1273;22517;-82
2023/05/10 11:32:00;;;;;;;2.80;1.70;;;;;;;16.31;36.17;96737.86;109134;1273;24224;-82
2023/05/10 11:34:33;;;;;;;5.50;2.30;;;;;;;16.17;36.05;96733.81;109097;1273;22486;-82
2023/05/10 11:37:04;;;;;;;2.40;1.80;;;;;;;16.11;36.30;96731.16;109138;1266;22535;-82
2023/05/10 11:39:35;;;;;;;8.80;1.70;;;;;;;16.00;36.24;96733.42;109121;1266;25226;-82
2023/05/10 11:42:09;;;;;;;5.40;2.10;;;;;;;15.85;35.89;96735.38;109069;1273;22560;-82
2023/05/10 11:44:40;;;;;;;3.00;1.80;;;;;;;15.79;36.01;96728.89;109117;1266;24356;-82
2023/05/10 11:47:12;;;;;;;3.30;2.10;;;;;;;15.81;36.79;96730.36;109100;1269;22664;-82
2023/05/10 11:49:46;;;;;;;2.40;1.90;;;;;;;15.90;36.97;96724.23;109130;1273;23845;-82
2023/05/10 11:52:19;;;;;;;2.30;2.00;;;;;;;15.98;37.27;96723.63;108949;1275;22483;-82
2023/05/10 11:54:55;;;;;;;2.80;1.80;;;;;;;15.98;37.12;96722.65;108997;1275;25425;-82
2023/05/10 11:57:30;;;;;;;3.30;2.10;;;;;;;15.88;35.97;96725.41;108972;1269;27180;-82